This is the latest recevied weather packets stored in our database for station/object DK8HC-WX. If no packets are shown the sender has not sent any weather packets the latest 10 day(s).
| Time | Temp. | Humidity | Pressure | Rain* | Wind** | Luminosity | Snow |
|---|---|---|---|---|---|---|---|
| 1777738902 | 27.22° C | 42% | 1017.7 hPa | - | - | - | - |
| 1777738302 | 28.33° C | 38% | 1017.8 hPa | - | - | - | - |
| 1777737702 | 27.78° C | 39% | 1017.9 hPa | - | - | - | - |
| 1777737102 | 28.33° C | 40% | 1018.2 hPa | - | - | - | - |
| 1777736503 | 27.78° C | 37% | 1018.2 hPa | - | - | - | - |
| 1777735902 | 28.33° C | 36% | 1018.3 hPa | - | - | - | - |
| 1777735302 | 29.44° C | 35% | 1018.6 hPa | - | - | - | - |
| 1777734702 | 30° C | 32% | 1018.6 hPa | - | - | - | - |
| 1777734102 | 29.44° C | 31% | 1018.6 hPa | - | - | - | - |
| 1777733502 | 32.22° C | 29% | 1018.9 hPa | - | - | - | - |
| 1777732902 | 32.78° C | 28% | 1019.1 hPa | - | - | - | - |
| 1777732302 | 33.33° C | 29% | 1019.3 hPa | - | - | - | - |
| 1777731702 | 31.67° C | 30% | 1019.3 hPa | - | - | - | - |
| 1777731102 | 33.33° C | 30% | 1019.7 hPa | - | - | - | - |
| 1777730502 | 34.44° C | 28% | 1019.8 hPa | - | - | - | - |
| 1777729902 | 33.33° C | 27% | 1019.7 hPa | - | - | - | - |
| 1777729302 | 32.78° C | 29% | 1020.1 hPa | - | - | - | - |
| 1777728702 | 33.33° C | 26% | 1019.7 hPa | - | - | - | - |
| 1777728102 | 35.56° C | 24% | 1020.1 hPa | - | - | - | - |
| 1777727502 | 36.11° C | 25% | 1020.4 hPa | - | - | - | - |
| 1777726902 | 33.89° C | 28% | 1020.7 hPa | - | - | - | - |
| 1777726302 | 32.78° C | 27% | 1020.5 hPa | - | - | - | - |
| 1777725701 | 31.67° C | 29% | 1020.7 hPa | - | - | - | - |
| 1777725101 | 31.11° C | 29% | 1020.7 hPa | - | - | - | - |
| 1777724501 | 30° C | 30% | 1020.6 hPa | - | - | - | - |
* Rain since midnight (hover to see other rain measurements)
** Current wind speed in m/s (hover to see current wind gust speed)